Time;durP1;ratioP1;P1;durP2;ratioP2;P2;SDS_P1;SDS_P2;PMS_P1;PMS_P2;Temp;Humidity;BMP_temperature;BMP_pressure;BME280_temperature;BME280_humidity;BME280_pressure;Samples;Min_cycle;Max_cycle;Signal;HPM_P1;HPM_P2
2023/07/09 00:01:56;;;;;;;12.20;7.50;;;;;;;24.96;82.64;-18696.53;5082033;28;20047;-76
2023/07/09 00:04:22;;;;;;;9.55;6.30;;;;;;;24.89;84.19;-18694.78;5081343;28;20075;-76
2023/07/09 00:06:47;;;;;;;9.20;6.78;;;;;;;24.77;86.25;-18691.53;5074219;28;20044;-76
2023/07/09 00:09:21;;;;;;;12.77;6.88;;;;;;;24.75;87.96;-18691.13;5077041;28;20044;-75
2023/07/09 00:11:47;;;;;;;12.32;7.07;;;;;;;24.75;88.48;-18691.00;5081271;28;20072;-75
2023/07/09 00:14:14;;;;;;;10.23;7.05;;;;;;;24.65;88.94;-18688.28;5077319;28;20463;-76
2023/07/09 00:16:41;;;;;;;9.88;6.82;;;;;;;24.62;89.36;-18687.47;5075854;28;20515;-76
2023/07/09 00:19:13;;;;;;;9.52;6.55;;;;;;;24.60;90.75;-18686.94;5065209;28;20511;-76
2023/07/09 00:21:40;;;;;;;10.05;6.72;;;;;;;24.58;90.88;-18686.38;5060089;28;20045;-76
2023/07/09 00:24:06;;;;;;;9.40;6.50;;;;;;;24.50;90.38;-18684.34;5064842;28;20040;-76
2023/07/09 00:26:32;;;;;;;13.10;7.07;;;;;;;24.47;91.42;-18683.69;5071101;28;20045;-77
2023/07/09 00:28:58;;;;;;;9.15;6.70;;;;;;;24.50;90.78;-18684.34;5081471;28;20109;-77
2023/07/09 00:31:24;;;;;;;8.65;6.43;;;;;;;24.53;91.60;-18685.31;5073455;28;20044;-77
2023/07/09 00:33:49;;;;;;;10.30;6.97;;;;;;;24.49;91.74;-18684.22;5079097;28;20109;-76
2023/07/09 00:36:23;;;;;;;10.48;6.53;;;;;;;24.44;92.29;-18682.88;5081464;28;20058;-76
2023/07/09 00:38:51;;;;;;;10.88;6.97;;;;;;;24.47;91.67;-18683.53;5079919;28;20043;-76
2023/07/09 00:41:22;;;;;;;11.00;6.93;;;;;;;24.41;92.24;-18682.03;5080574;28;20407;-76
2023/07/09 00:43:50;;;;;;;9.65;6.53;;;;;;;24.21;95.54;-18676.63;5078506;28;20145;-76
2023/07/09 00:46:27;;;;;;;11.80;7.00;;;;;;;24.23;95.58;-18677.16;5075569;28;20048;-76
2023/07/09 00:48:59;;;;;;;10.68;7.00;;;;;;;24.32;93.61;-18679.59;5074942;28;20036;-76
2023/07/09 00:51:27;;;;;;;10.75;7.05;;;;;;;24.18;94.99;-18675.94;5076487;28;20127;-76
2023/07/09 00:53:58;;;;;;;12.68;7.45;;;;;;;24.20;95.88;-18676.34;5063736;28;20113;-76
2023/07/09 00:56:40;;;;;;;9.60;6.93;;;;;;;24.15;95.93;-18675.00;5081797;28;20100;-76
2023/07/09 00:59:11;;;;;;;10.35;6.82;;;;;;;24.19;95.28;-18676.09;5078667;28;20044;-75
2023/07/09 01:01:40;;;;;;;10.63;6.65;;;;;;;24.18;94.07;-18675.94;5077614;28;20080;-77
2023/07/09 01:04:05;;;;;;;11.05;7.80;;;;;;;24.25;94.48;-18677.72;5082290;28;20043;-76
2023/07/09 01:06:35;;;;;;;10.15;7.20;;;;;;;24.17;94.19;-18675.53;5078373;28;20105;-76
2023/07/09 01:09:03;;;;;;;10.20;6.80;;;;;;;24.21;95.02;-18676.75;5052529;28;20682;-76
2023/07/09 01:11:30;;;;;;;11.13;7.07;;;;;;;24.19;96.57;-18676.22;5078692;28;20094;-76
2023/07/09 01:13:57;;;;;;;9.85;6.82;;;;;;;24.17;97.46;-18675.53;5076929;28;20059;-76
2023/07/09 01:16:30;;;;;;;10.85;7.07;;;;;;;24.16;96.50;-18675.28;5080563;28;20522;-76
2023/07/09 01:18:55;;;;;;;11.02;6.78;;;;;;;24.14;95.25;-18674.88;5080215;28;20055;-77
2023/07/09 01:21:21;;;;;;;10.98;7.00;;;;;;;24.10;96.27;-18673.78;5080374;28;20039;-76
2023/07/09 01:23:48;;;;;;;9.45;6.93;;;;;;;24.29;93.96;-18678.78;5062418;28;20051;-75
2023/07/09 01:26:17;;;;;;;11.32;7.00;;;;;;;24.25;95.39;-18677.72;5080365;28;20051;-76
2023/07/09 01:28:45;;;;;;;10.18;6.72;;;;;;;24.26;94.22;-18678.13;5083983;28;20514;-76
2023/07/09 01:31:12;;;;;;;10.85;7.25;;;;;;;24.25;94.46;-18677.84;5084913;28;20380;-75
2023/07/09 01:33:39;;;;;;;9.45;6.25;;;;;;;24.27;95.02;-18678.38;5083243;28;20048;-76
2023/07/09 01:36:08;;;;;;;11.85;7.20;;;;;;;24.17;96.23;-18675.53;5085467;28;20059;-76
2023/07/09 01:38:34;;;;;;;11.80;7.05;;;;;;;24.09;97.19;-18673.50;5078704;28;20039;-76
2023/07/09 01:41:01;;;;;;;10.43;6.78;;;;;;;24.12;97.85;-18674.31;5081459;28;20067;-75
2023/07/09 01:43:28;;;;;;;10.15;6.90;;;;;;;23.97;99.32;-18670.41;5081312;28;20040;-76
2023/07/09 01:45:57;;;;;;;9.15;6.63;;;;;;;23.97;99.62;-18670.25;5079364;28;20040;-75
2023/07/09 01:48:24;;;;;;;10.15;7.45;;;;;;;23.91;99.76;-18668.63;5084435;28;20048;-76
2023/07/09 01:50:51;;;;;;;10.88;6.78;;;;;;;23.94;98.83;-18669.59;5082014;28;20405;-76
2023/07/09 01:53:19;;;;;;;11.75;7.22;;;;;;;24.01;98.25;-18671.47;5082806;28;20123;-75
2023/07/09 01:55:44;;;;;;;9.45;6.65;;;;;;;23.91;98.35;-18668.78;5082209;28;20040;-76
2023/07/09 01:58:10;;;;;;;11.07;7.05;;;;;;;23.92;100.00;-18668.91;5081554;28;20033;-76
2023/07/09 02:00:37;;;;;;;11.13;6.90;;;;;;;23.85;99.93;-18667.28;5065579;28;20044;-75
2023/07/09 02:03:04;;;;;;;11.20;7.68;;;;;;;23.83;100.00;-18666.59;5050671;28;20028;-76
2023/07/09 02:05:33;;;;;;;10.43;6.90;;;;;;;23.82;100.00;-18666.31;5077086;28;20066;-75
2023/07/09 02:07:59;;;;;;;10.40;7.03;;;;;;;23.90;99.53;-18668.50;5058663;28;20050;-76
2023/07/09 02:10:25;;;;;;;11.50;7.25;;;;;;;23.84;100.00;-18666.88;5073834;28;20068;-76
2023/07/09 02:12:51;;;;;;;11.52;7.57;;;;;;;23.82;100.00;-18666.47;5081940;28;21333;-76
2023/07/09 02:15:17;;;;;;;10.95;7.30;;;;;;;23.65;100.00;-18662.00;5080489;28;20055;-76
2023/07/09 02:17:43;;;;;;;13.35;7.07;;;;;;;23.61;100.00;-18660.75;5080885;28;20060;-76
2023/07/09 02:20:09;;;;;;;9.65;7.18;;;;;;;23.63;100.00;-18661.31;5082510;28;20051;-77
2023/07/09 02:22:36;;;;;;;9.32;7.10;;;;;;;23.49;100.00;-18657.66;5073897;28;20041;-76
2023/07/09 02:25:03;;;;;;;11.23;7.05;;;;;;;23.44;100.00;-18656.28;5065428;28;20416;-76
2023/07/09 02:27:28;;;;;;;9.95;6.32;;;;;;;23.46;100.00;-18656.84;5082535;28;20039;-76
2023/07/09 02:29:54;;;;;;;9.52;6.82;;;;;;;23.45;100.00;-18656.56;5083779;28;20055;-76
2023/07/09 02:32:22;;;;;;;9.82;7.25;;;;;;;23.44;100.00;-18656.28;5084403;28;20044;-75
2023/07/09 02:34:48;;;;;;;12.23;7.55;;;;;;;23.37;100.00;-18654.53;5081252;28;20151;-75
2023/07/09 02:37:16;;;;;;;8.90;6.97;;;;;;;23.40;100.00;-18655.22;5084103;28;20040;-76
2023/07/09 02:39:42;;;;;;;11.30;7.90;;;;;;;23.30;100.00;-18652.50;5081728;28;20630;-75
2023/07/09 02:42:10;;;;;;;11.90;7.93;;;;;;;23.16;100.00;-18648.97;5079151;28;20085;-76
2023/07/09 02:44:35;;;;;;;11.10;7.70;;;;;;;23.17;100.00;-18649.09;5066766;28;20060;-76
2023/07/09 02:47:00;;;;;;;10.98;7.22;;;;;;;23.19;100.00;-18649.78;5082940;28;20047;-76
2023/07/09 02:49:26;;;;;;;9.95;7.50;;;;;;;23.14;100.00;-18648.28;5083782;28;20055;-76
2023/07/09 02:51:51;;;;;;;9.88;7.68;;;;;;;23.11;100.00;-18647.59;5080170;28;20080;-76
2023/07/09 02:54:17;;;;;;;12.35;7.68;;;;;;;23.12;100.00;-18647.75;5080080;28;20044;-76
2023/07/09 02:56:42;;;;;;;13.85;7.68;;;;;;;23.10;100.00;-18647.19;5063960;28;20048;-79
2023/07/09 02:59:07;;;;;;;13.88;8.35;;;;;;;23.07;100.00;-18646.38;5083478;28;20115;-76
2023/07/09 03:01:34;;;;;;;11.18;8.02;;;;;;;23.04;100.00;-18645.56;5080759;28;20411;-76
2023/07/09 03:04:01;;;;;;;10.45;7.70;;;;;;;23.00;100.00;-18644.63;5079161;28;20089;-76
2023/07/09 03:06:27;;;;;;;12.73;7.15;;;;;;;22.91;100.00;-18642.19;5084118;28;20071;-76
2023/07/09 03:08:53;;;;;;;10.82;7.47;;;;;;;22.87;100.00;-18641.22;5083878;28;20487;-76
2023/07/09 03:11:20;;;;;;;10.98;8.18;;;;;;;22.86;100.00;-18640.81;5083550;28;20044;-76
2023/07/09 03:13:46;;;;;;;9.25;6.97;;;;;;;22.81;100.00;-18639.47;5081814;28;20053;-76
2023/07/09 03:16:12;;;;;;;10.98;7.63;;;;;;;22.82;100.00;-18639.72;5083112;28;20051;-75
2023/07/09 03:18:39;;;;;;;12.13;8.20;;;;;;;22.91;100.00;-18642.19;5076788;28;20040;-76
2023/07/09 03:21:04;;;;;;;11.68;7.95;;;;;;;22.90;100.00;-18641.91;5082205;28;20105;-76
2023/07/09 03:23:30;;;;;;;11.43;8.25;;;;;;;22.75;100.00;-18637.97;5075095;28;20479;-76
2023/07/09 03:25:55;;;;;;;14.05;7.60;;;;;;;22.77;100.00;-18638.50;5081565;28;20438;-76
2023/07/09 03:28:21;;;;;;;11.95;8.02;;;;;;;22.78;100.00;-18638.78;5083342;28;20043;-77
2023/07/09 03:30:48;;;;;;;11.85;7.57;;;;;;;22.69;100.00;-18636.47;5078922;28;21097;-76
2023/07/09 03:33:16;;;;;;;11.40;7.50;;;;;;;22.64;100.00;-18635.13;5084016;28;20050;-76
2023/07/09 03:35:42;;;;;;;10.00;7.80;;;;;;;22.66;100.00;-18635.53;5076099;28;20101;-77
2023/07/09 03:38:09;;;;;;;11.77;7.72;;;;;;;22.67;100.00;-18635.94;5086804;28;20040;-77
2023/07/09 03:40:36;;;;;;;12.23;8.63;;;;;;;22.69;100.00;-18636.47;5080755;28;20439;-75
2023/07/09 03:43:02;;;;;;;12.63;7.97;;;;;;;22.73;100.00;-18637.44;5081460;28;20036;-77
2023/07/09 03:45:27;;;;;;;10.75;8.00;;;;;;;22.72;100.00;-18637.28;5081811;28;20089;-75
2023/07/09 03:47:53;;;;;;;12.55;7.82;;;;;;;22.72;100.00;-18637.28;5080969;28;20032;-77
2023/07/09 03:50:18;;;;;;;11.48;7.78;;;;;;;22.78;100.00;-18638.66;5080014;28;20162;-77
2023/07/09 03:52:44;;;;;;;11.88;7.78;;;;;;;22.73;100.00;-18637.56;5082344;28;20119;-75
2023/07/09 03:55:09;;;;;;;11.77;7.82;;;;;;;22.70;100.00;-18636.59;5077031;28;20075;-77
2023/07/09 03:57:35;;;;;;;12.05;8.32;;;;;;;22.67;100.00;-18635.94;5081377;28;20040;-77
2023/07/09 04:00:02;;;;;;;13.43;8.27;;;;;;;22.70;100.00;-18636.59;5082393;28;20044;-77
2023/07/09 04:02:28;;;;;;;13.40;8.38;;;;;;;22.69;100.00;-18636.47;5082374;28;20052;-75
2023/07/09 04:04:53;;;;;;;12.15;9.00;;;;;;;22.64;100.00;-18635.13;5081560;28;20318;-76
2023/07/09 04:07:19;;;;;;;11.48;8.43;;;;;;;22.64;100.00;-18635.13;5061552;28;20389;-77
2023/07/09 04:09:44;;;;;;;11.32;8.27;;;;;;;22.67;100.00;-18635.94;5078084;28;20119;-75
2023/07/09 04:12:10;;;;;;;11.30;8.40;;;;;;;22.75;100.00;-18638.09;5074853;28;20144;-75
2023/07/09 04:14:35;;;;;;;15.43;9.15;;;;;;;22.63;100.00;-18634.84;5077515;28;20044;-78
2023/07/09 04:17:01;;;;;;;11.77;8.23;;;;;;;22.60;100.00;-18633.91;5063087;28;20464;-77
2023/07/09 04:19:27;;;;;;;11.30;8.38;;;;;;;22.74;100.00;-18637.84;5082824;28;20590;-77
2023/07/09 04:21:52;;;;;;;12.60;8.70;;;;;;;22.70;100.00;-18636.75;5062985;28;20044;-76
2023/07/09 04:24:18;;;;;;;10.73;8.32;;;;;;;22.80;100.00;-18639.31;5082919;28;20130;-75
2023/07/09 04:26:44;;;;;;;10.82;8.30;;;;;;;22.83;100.00;-18640.00;5080927;28;20450;-77
2023/07/09 04:29:10;;;;;;;12.27;8.35;;;;;;;22.86;100.00;-18640.81;5082094;28;20036;-76
2023/07/09 04:31:36;;;;;;;11.52;8.15;;;;;;;22.92;100.00;-18642.44;5064614;28;20109;-77
2023/07/09 04:34:01;;;;;;;14.75;8.27;;;;;;;22.91;100.00;-18642.19;5082917;28;20036;-78
2023/07/09 04:36:27;;;;;;;11.65;8.32;;;;;;;22.92;100.00;-18642.44;5063318;28;20087;-75
2023/07/09 04:38:52;;;;;;;11.95;8.18;;;;;;;23.09;100.00;-18646.94;5070075;28;20032;-77
2023/07/09 04:41:18;;;;;;;12.02;7.75;;;;;;;23.11;100.00;-18647.59;5071241;28;20060;-77
2023/07/09 04:43:43;;;;;;;11.43;7.60;;;;;;;23.08;100.00;-18646.78;5075621;28;20049;-77
2023/07/09 04:46:09;;;;;;;13.75;8.52;;;;;;;23.23;100.00;-18650.72;5082006;28;20047;-77
2023/07/09 04:48:34;;;;;;;14.88;9.25;;;;;;;23.29;100.00;-18652.22;5083242;28;20048;-75
2023/07/09 04:51:00;;;;;;;12.70;8.20;;;;;;;23.38;100.00;-18654.66;5080595;28;20059;-77
2023/07/09 04:53:26;;;;;;;12.20;7.70;;;;;;;23.47;100.00;-18657.09;5084298;28;20072;-76
2023/07/09 04:55:51;;;;;;;12.18;7.68;;;;;;;23.53;100.00;-18658.59;5080722;28;20480;-78
2023/07/09 04:58:18;;;;;;;11.40;8.07;;;;;;;23.63;100.00;-18661.31;5083805;28;20067;-76
2023/07/09 05:00:43;;;;;;;11.15;8.57;;;;;;;23.74;100.00;-18664.16;5077060;28;20055;-78
2023/07/09 05:03:09;;;;;;;14.05;8.23;;;;;;;23.86;100.00;-18667.53;5079666;28;20039;-76
2023/07/09 05:05:34;;;;;;;12.15;9.00;;;;;;;23.89;100.00;-18668.22;5063211;28;20050;-77
2023/07/09 05:08:00;;;;;;;12.65;8.15;;;;;;;24.03;100.00;-18672.03;5083070;28;20618;-77
2023/07/09 05:10:25;;;;;;;15.02;8.45;;;;;;;24.15;100.00;-18675.13;5078587;28;20098;-77
2023/07/09 05:12:53;;;;;;;12.30;8.25;;;;;;;24.24;100.00;-18677.56;5081567;28;20044;-76
2023/07/09 05:15:20;;;;;;;12.98;8.73;;;;;;;24.38;100.00;-18681.22;5082676;28;20047;-78
2023/07/09 05:17:46;;;;;;;12.75;8.30;;;;;;;24.53;100.00;-18685.31;5063136;28;20048;-75
2023/07/09 05:20:12;;;;;;;13.40;8.05;;;;;;;24.50;100.00;-18684.50;5081124;28;20415;-77
2023/07/09 05:22:37;;;;;;;11.57;8.00;;;;;;;24.59;100.00;-18686.66;5071563;28;20041;-77
2023/07/09 05:25:03;;;;;;;14.68;8.73;;;;;;;24.63;100.00;-18687.75;5080415;28;20051;-77
2023/07/09 05:27:28;;;;;;;12.90;8.45;;;;;;;24.46;100.00;-18683.41;5067923;28;20044;-77
2023/07/09 05:29:55;;;;;;;13.45;8.90;;;;;;;24.54;100.00;-18685.44;5065039;28;20063;-78
2023/07/09 05:32:20;;;;;;;12.88;9.38;;;;;;;24.74;100.00;-18690.72;5077302;28;20032;-77
2023/07/09 05:34:46;;;;;;;13.30;9.07;;;;;;;24.98;100.00;-18697.22;5079308;28;20167;-77
2023/07/09 05:37:11;;;;;;;13.20;8.20;;;;;;;25.09;99.26;-18699.94;5081173;28;20047;-76
2023/07/09 05:39:36;;;;;;;13.10;8.25;;;;;;;25.41;97.71;-18708.59;5078395;28;20135;-77
2023/07/09 05:42:02;;;;;;;11.35;8.45;;;;;;;25.47;98.50;-18709.94;5057566;28;20102;-75
2023/07/09 05:44:27;;;;;;;13.88;8.88;;;;;;;25.65;94.69;-18714.94;5082878;28;20048;-76
2023/07/09 05:46:53;;;;;;;11.63;7.43;;;;;;;25.72;95.25;-18716.56;5078490;28;20105;-77
2023/07/09 05:49:18;;;;;;;12.77;8.27;;;;;;;25.82;94.56;-18719.28;5073402;28;20139;-77
2023/07/09 05:51:43;;;;;;;11.80;7.93;;;;;;;25.98;92.67;-18723.47;5068631;28;20028;-76
2023/07/09 05:54:09;;;;;;;14.23;8.30;;;;;;;25.98;91.89;-18723.47;5081059;28;20064;-78
2023/07/09 05:56:34;;;;;;;11.80;7.72;;;;;;;26.08;91.31;-18726.19;5082810;28;20072;-76
2023/07/09 05:59:00;;;;;;;13.65;8.55;;;;;;;26.16;90.92;-18728.34;5081234;28;20028;-76
2023/07/09 06:01:26;;;;;;;12.93;8.57;;;;;;;26.41;89.34;-18734.97;5075150;28;20705;-78
2023/07/09 06:03:53;;;;;;;12.07;7.00;;;;;;;26.53;86.83;-18738.09;5079118;28;21223;-76
2023/07/09 06:06:18;;;;;;;13.52;7.75;;;;;;;26.58;84.85;-18739.44;5068931;28;20048;-77
2023/07/09 06:08:44;;;;;;;11.68;7.57;;;;;;;26.69;86.16;-18742.41;5081125;28;20040;-76
2023/07/09 06:11:09;;;;;;;11.48;7.43;;;;;;;26.83;83.41;-18745.91;5073649;28;20427;-76
2023/07/09 06:13:35;;;;;;;11.13;6.88;;;;;;;27.07;80.93;-18752.41;5073462;28;20048;-76
2023/07/09 06:16:00;;;;;;;13.57;6.82;;;;;;;27.16;78.31;-18754.84;5071631;28;20754;-76
2023/07/09 06:18:29;;;;;;;13.43;6.85;;;;;;;27.23;76.62;-18756.72;5076634;28;20101;-76
2023/07/09 06:20:58;;;;;;;10.43;6.07;;;;;;;27.39;77.51;-18760.78;5071608;28;20056;-77
2023/07/09 06:23:23;;;;;;;11.70;5.88;;;;;;;27.39;79.10;-18760.78;5070960;28;20580;-77
2023/07/09 06:25:50;;;;;;;12.23;7.30;;;;;;;27.54;75.14;-18764.81;5077735;28;20044;-78
2023/07/09 06:28:17;;;;;;;11.27;6.88;;;;;;;27.57;75.70;-18765.63;5077431;28;20164;-76
2023/07/09 06:30:42;;;;;;;10.98;6.68;;;;;;;27.70;81.19;-18769.00;5082923;28;20048;-75
2023/07/09 06:33:08;;;;;;;10.32;6.57;;;;;;;27.67;78.98;-18768.19;5086709;28;20036;-78
2023/07/09 06:35:33;;;;;;;10.27;6.80;;;;;;;27.84;78.60;-18772.66;5071394;28;20067;-75
2023/07/09 06:37:58;;;;;;;12.23;6.20;;;;;;;27.93;77.93;-18774.94;5074172;28;20040;-75
2023/07/09 06:40:24;;;;;;;13.27;6.90;;;;;;;28.12;73.92;-18780.09;5079650;28;20048;-78
2023/07/09 06:42:50;;;;;;;11.05;7.43;;;;;;;28.04;74.50;-18777.91;5058102;28;20064;-74
2023/07/09 06:45:16;;;;;;;12.02;7.25;;;;;;;27.96;75.07;-18775.75;5077834;28;20384;-75
2023/07/09 06:47:42;;;;;;;14.45;7.20;;;;;;;27.94;74.94;-18775.34;5072106;28;20040;-75
2023/07/09 06:50:08;;;;;;;13.98;7.60;;;;;;;28.03;74.29;-18777.78;5069557;28;20368;-75
2023/07/09 06:52:33;;;;;;;13.15;7.55;;;;;;;28.18;76.42;-18781.56;5086500;28;20043;-75
2023/07/09 06:54:58;;;;;;;13.00;7.20;;;;;;;28.27;75.38;-18784.00;5078021;28;20128;-75
2023/07/09 06:57:24;;;;;;;13.18;7.90;;;;;;;28.40;75.00;-18787.50;5066660;28;20407;-75
2023/07/09 06:59:49;;;;;;;13.70;7.88;;;;;;;28.40;74.38;-18787.50;5059021;28;20380;-75
2023/07/09 07:02:14;;;;;;;12.57;8.30;;;;;;;28.46;73.19;-18789.13;5073060;28;20067;-78
2023/07/09 07:04:41;;;;;;;13.82;7.75;;;;;;;28.63;75.10;-18793.56;5071228;28;20044;-78
2023/07/09 07:07:07;;;;;;;13.02;7.53;;;;;;;28.71;72.60;-18795.72;5080373;28;20093;-74
2023/07/09 07:09:32;;;;;;;11.68;7.32;;;;;;;28.82;72.69;-18798.56;5084748;28;20449;-75
2023/07/09 07:11:57;;;;;;;14.73;8.05;;;;;;;29.08;70.28;-18805.44;5085516;28;20057;-75
2023/07/09 07:14:23;;;;;;;15.57;7.55;;;;;;;29.07;71.19;-18805.16;5059742;28;20102;-75
2023/07/09 07:16:48;;;;;;;13.85;7.75;;;;;;;29.09;71.36;-18805.56;5069355;28;20040;-76
2023/07/09 07:19:14;;;;;;;11.38;7.03;;;;;;;29.18;71.08;-18808.13;5070627;28;20044;-75
2023/07/09 07:21:40;;;;;;;12.43;7.40;;;;;;;29.23;70.76;-18809.34;5073100;28;20094;-76
2023/07/09 07:24:05;;;;;;;16.52;7.97;;;;;;;29.22;71.27;-18809.19;5082518;28;20040;-76
2023/07/09 07:26:31;;;;;;;12.57;7.00;;;;;;;29.32;71.84;-18811.75;5075886;28;20827;-76
2023/07/09 07:32:18;;;;;;;12.82;7.20;;;;;;;29.68;70.44;-18821.31;5052055;28;20521;-76
2023/07/09 07:34:43;;;;;;;11.88;7.45;;;;;;;29.85;68.02;-18825.78;5061034;28;20036;-76
2023/07/09 07:37:08;;;;;;;13.68;7.43;;;;;;;29.90;67.47;-18827.13;5078950;28;20029;-76
2023/07/09 07:39:34;;;;;;;12.95;7.10;;;;;;;30.04;69.12;-18830.63;5065821;28;20816;-76
2023/07/09 07:41:59;;;;;;;10.85;7.30;;;;;;;30.12;67.53;-18832.91;5085446;28;20044;-76
2023/07/09 07:44:24;;;;;;;12.48;7.45;;;;;;;30.17;66.20;-18834.09;5060990;28;20468;-75
2023/07/09 07:46:50;;;;;;;12.73;7.30;;;;;;;30.31;67.42;-18837.88;5068336;28;20446;-76
2023/07/09 07:49:15;;;;;;;10.10;6.65;;;;;;;30.48;66.49;-18842.31;5068794;28;20605;-76
2023/07/09 07:51:41;;;;;;;13.05;7.07;;;;;;;30.43;64.00;-18840.84;5081430;28;20040;-76
2023/07/09 07:54:09;;;;;;;9.98;7.28;;;;;;;30.55;63.30;-18844.06;5082494;28;20032;-76
2023/07/09 07:56:36;;;;;;;9.93;6.68;;;;;;;30.61;64.94;-18845.69;5078915;28;20039;-76
2023/07/09 07:59:02;;;;;;;14.48;7.43;;;;;;;30.72;62.26;-18848.63;5081155;28;20058;-76
2023/07/09 08:01:28;;;;;;;13.80;7.35;;;;;;;30.79;65.90;-18850.41;5074971;28;20806;-76
2023/07/09 08:03:53;;;;;;;13.50;7.53;;;;;;;30.92;65.71;-18853.75;5074672;28;20040;-76
2023/07/09 08:06:19;;;;;;;12.98;7.50;;;;;;;31.05;64.95;-18857.25;5079716;28;20402;-75
2023/07/09 08:08:44;;;;;;;12.07;7.03;;;;;;;31.01;64.20;-18856.31;5070018;28;20032;-79
2023/07/09 08:11:10;;;;;;;10.52;7.22;;;;;;;31.18;60.65;-18860.59;5079654;28;20119;-76
2023/07/09 08:13:36;;;;;;;11.75;6.90;;;;;;;31.31;59.79;-18863.97;5080032;28;20193;-76
2023/07/09 08:16:02;;;;;;;11.02;7.28;;;;;;;31.28;59.21;-18863.16;5077704;28;20047;-77
2023/07/09 08:18:27;;;;;;;10.15;6.65;;;;;;;31.30;59.48;-18863.81;5074800;28;20082;-77
2023/07/09 08:20:53;;;;;;;13.18;6.88;;;;;;;31.31;58.83;-18864.09;5076582;28;20484;-76
2023/07/09 08:23:19;;;;;;;12.50;7.30;;;;;;;31.50;58.82;-18869.06;5077976;28;20043;-76
2023/07/09 08:25:51;;;;;;;14.52;7.18;;;;;;;31.53;59.47;-18869.75;5071682;28;20063;-76
2023/07/09 08:28:17;;;;;;;10.68;6.53;;;;;;;31.64;61.82;-18872.84;5074607;28;20545;-76
2023/07/09 08:30:42;;;;;;;11.80;7.10;;;;;;;31.67;56.83;-18873.50;5068359;28;20096;-76
2023/07/09 08:33:07;;;;;;;10.25;7.30;;;;;;;32.03;55.80;-18883.03;5077294;28;20104;-76
2023/07/09 08:35:33;;;;;;;10.52;7.15;;;;;;;32.16;56.94;-18886.25;5073389;28;20451;-77
2023/07/09 08:37:58;;;;;;;12.60;6.78;;;;;;;32.19;51.83;-18887.06;5084541;28;20035;-76
2023/07/09 08:40:24;;;;;;;10.82;6.28;;;;;;;32.21;54.65;-18887.59;5066539;28;20048;-76
2023/07/09 08:42:57;;;;;;;10.77;6.78;;;;;;;32.23;55.51;-18888.28;5075621;28;20074;-76
2023/07/09 08:45:54;;;;;;;11.75;6.32;;;;;;;32.43;54.52;-18893.50;5059903;28;20085;-76
2023/07/09 08:48:31;;;;;;;11.13;6.40;;;;;;;32.49;53.65;-18895.13;5026200;28;20049;-76
2023/07/09 08:51:04;;;;;;;12.20;7.03;;;;;;;32.70;53.70;-18900.63;5075501;28;20462;-75
2023/07/09 08:53:53;;;;;;;7.90;5.97;;;;;;;32.75;53.78;-18901.81;5081055;28;20040;-76
2023/07/09 08:56:19;;;;;;;9.93;5.80;;;;;;;32.85;52.78;-18904.50;5083728;28;20475;-77
2023/07/09 08:58:46;;;;;;;11.50;6.13;;;;;;;32.99;51.96;-18908.25;5080089;28;20603;-76
2023/07/09 09:01:20;;;;;;;10.05;6.03;;;;;;;33.20;53.33;-18913.63;5072130;28;20395;-76
2023/07/09 09:04:00;;;;;;;10.80;6.20;;;;;;;33.26;51.49;-18915.22;5064654;28;20040;-77
2023/07/09 09:06:28;;;;;;;9.82;6.60;;;;;;;33.30;54.08;-18916.31;5078789;28;20491;-76
2023/07/09 09:09:33;;;;;;;11.18;6.82;;;;;;;33.46;52.37;-18920.47;5079188;28;20043;-76
2023/07/09 09:12:21;;;;;;;9.13;5.90;;;;;;;33.50;49.00;-18921.41;5081924;28;20032;-76
2023/07/09 09:14:52;;;;;;;;;;;;;;;33.47;49.10;-18920.88;5065748;28;20384;-76
2023/07/09 09:17:20;;;;;;;11.27;7.03;;;;;;;33.38;48.33;-18918.44;5080099;28;20126;-76
2023/07/09 09:20:04;;;;;;;9.10;5.80;;;;;;;33.42;48.42;-18919.53;5078411;28;20151;-77
2023/07/09 09:22:42;;;;;;;9.10;6.43;;;;;;;33.71;50.49;-18927.03;5078805;28;20040;-77
2023/07/09 09:25:28;;;;;;;9.15;6.35;;;;;;;33.85;47.92;-18930.78;5077456;28;20039;-77
2023/07/09 09:27:54;;;;;;;10.07;5.75;;;;;;;34.03;49.71;-18935.31;5077783;28;20120;-77
2023/07/09 09:30:23;;;;;;;10.70;5.80;;;;;;;34.05;49.88;-18936.00;5078207;28;20669;-76
2023/07/09 09:32:57;;;;;;;9.43;6.47;;;;;;;34.13;47.81;-18938.00;5063843;28;20040;-76
2023/07/09 09:35:34;;;;;;;10.15;6.22;;;;;;;34.18;47.58;-18939.22;5081505;28;20710;-77
2023/07/09 09:38:00;;;;;;;12.43;6.05;;;;;;;34.27;45.55;-18941.75;5072114;28;20040;-77
2023/07/09 09:40:28;;;;;;;10.40;6.75;;;;;;;34.47;45.42;-18946.97;5076933;28;20070;-77
2023/07/09 09:42:57;;;;;;;9.93;6.13;;;;;;;34.22;45.65;-18940.41;5074882;28;20032;-77
2023/07/09 09:45:50;;;;;;;10.50;6.15;;;;;;;34.55;49.51;-18949.13;5072625;28;20093;-77
2023/07/09 09:48:18;;;;;;;10.88;6.82;;;;;;;34.62;46.45;-18950.72;5016853;28;20040;-77
2023/07/09 09:50:46;;;;;;;9.23;5.90;;;;;;;34.57;43.79;-18949.53;5084462;28;20123;-77
2023/07/09 09:53:24;;;;;;;13.77;6.85;;;;;;;34.75;45.17;-18954.34;5079159;28;20083;-76
2023/07/09 09:55:52;;;;;;;;;;;;;;;34.88;44.40;-18957.69;5089378;28;20036;-76
2023/07/09 09:58:17;;;;;;;10.23;6.00;;;;;;;35.13;44.09;-18964.25;5071776;28;19916;-76
2023/07/09 10:00:52;;;;;;;10.57;5.80;;;;;;;35.34;43.37;-18969.59;5074973;28;20055;-76
2023/07/09 10:03:18;;;;;;;8.68;6.13;;;;;;;35.61;43.92;-18976.78;5066977;28;20051;-76
2023/07/09 10:05:58;;;;;;;11.27;6.30;;;;;;;35.47;42.79;-18973.19;5080848;28;20048;-75
2023/07/09 10:08:56;;;;;;;10.15;5.55;;;;;;;35.43;41.47;-18972.13;5063287;28;20078;-75
2023/07/09 10:11:45;;;;;;;10.43;6.10;;;;;;;35.44;41.71;-18972.25;5060763;28;20060;-76
2023/07/09 10:14:37;;;;;;;9.40;5.70;;;;;;;35.47;41.04;-18973.06;5079799;28;20036;-75
2023/07/09 10:17:35;;;;;;;9.82;5.63;;;;;;;35.50;41.57;-18973.84;5041666;28;20068;-76
2023/07/09 10:20:19;;;;;;;8.50;6.18;;;;;;;35.82;41.80;-18982.28;5080241;28;20071;-76
2023/07/09 10:23:01;;;;;;;9.60;5.50;;;;;;;36.12;41.57;-18990.16;5075734;28;20056;-76
2023/07/09 10:25:54;;;;;;;11.65;5.88;;;;;;;36.27;41.67;-18993.88;5082580;28;20499;-76
2023/07/09 10:28:46;;;;;;;8.13;5.40;;;;;;;36.27;39.47;-18994.03;5044673;28;20048;-75
2023/07/09 10:31:36;;;;;;;10.75;5.45;;;;;;;35.98;37.74;-18986.41;5060664;28;20044;-76
2023/07/09 10:34:13;;;;;;;10.85;6.53;;;;;;;35.96;39.21;-18985.88;5081773;28;20131;-76
2023/07/09 10:36:56;;;;;;;8.88;5.95;;;;;;;36.30;40.16;-18994.69;5075499;28;20048;-76
2023/07/09 10:39:28;;;;;;;10.98;6.80;;;;;;;36.47;40.15;-18999.22;5074799;28;20412;-76
2023/07/09 10:41:59;;;;;;;8.23;5.28;;;;;;;36.40;38.64;-18997.22;5074725;28;20044;-76
2023/07/09 10:44:42;;;;;;;9.35;5.53;;;;;;;36.43;37.58;-18998.03;5084166;28;20063;-76
2023/07/09 10:47:26;;;;;;;10.98;5.82;;;;;;;36.22;37.69;-18992.56;5064022;28;20043;-76
2023/07/09 10:49:52;;;;;;;12.27;6.28;;;;;;;36.21;36.66;-18992.41;5082133;28;20081;-76
2023/07/09 10:52:41;;;;;;;10.95;5.80;;;;;;;36.16;38.88;-18991.09;5065210;28;20075;-75
2023/07/09 10:55:25;;;;;;;9.73;6.40;;;;;;;36.56;38.57;-19001.50;5056996;28;20047;-75
2023/07/09 10:58:02;;;;;;;9.00;5.60;;;;;;;36.65;38.09;-19003.78;5081421;28;20159;-75
2023/07/09 11:00:37;;;;;;;8.98;5.68;;;;;;;36.75;37.61;-19006.56;5077400;28;20525;-76
2023/07/09 11:03:15;;;;;;;7.70;5.03;;;;;;;36.84;37.34;-19008.69;5064187;28;20624;-76
2023/07/09 11:05:42;;;;;;;10.25;5.47;;;;;;;36.98;37.80;-19012.56;5084993;28;20514;-75
2023/07/09 11:08:18;;;;;;;10.50;5.63;;;;;;;36.99;36.90;-19012.84;5067255;28;20049;-76
2023/07/09 11:10:55;;;;;;;9.70;5.20;;;;;;;37.00;36.42;-19013.09;5067318;28;20028;-76
2023/07/09 11:13:26;;;;;;;7.55;4.80;;;;;;;36.97;35.29;-19012.31;5052644;28;20051;-75
2023/07/09 11:15:56;;;;;;;7.72;5.07;;;;;;;37.01;34.90;-19013.38;5062426;28;20108;-75
2023/07/09 11:18:33;;;;;;;7.88;5.55;;;;;;;37.06;35.71;-19014.44;5075748;28;20499;-75
2023/07/09 11:21:20;;;;;;;9.52;5.18;;;;;;;37.09;35.15;-19015.25;5072147;28;20461;-75
2023/07/09 11:23:59;;;;;;;10.48;5.05;;;;;;;36.91;35.23;-19010.69;5074977;28;20052;-75
2023/07/09 11:26:29;;;;;;;8.68;4.82;;;;;;;36.93;35.04;-19011.22;5059025;28;20486;-76
2023/07/09 11:29:09;;;;;;;9.63;5.38;;;;;;;37.01;35.06;-19013.25;5080025;28;20070;-75